• Join FlightAware (Why Join?)
  • Login
  • US Flag 
10:07AM EDT


 

Airport Tracker/Info


-or-


 

Live Flight TrackerFlight Track Log ✈ WIG7407 ✈ 12-Jul-2013 ✈ KPBG - KALB

Flight Track Log - Related Links

Times and Time Zones

All times are in EDT time to prevent confusion due to time zone crossing. See the WIG7407 flight status page for this flight to view local times or setup timezone preferences in your user account.

Time Position Orientation Groundspeed Altitude Reporting Facility
EDT Latitude Longitude Course Direction KTS MPH feet Rate Location/Type
07:57PM 44.4983 -73.4703 168° South 131 151 3,600  Level Boston Center
07:58PM 44.4672 -73.4728 183° South 126 145 4,200 600 Climbing Boston Center
07:59PM 44.4336 -73.4781 186° South 126 145 4,900 660 Climbing Boston Center
08:00PM 44.4003 -73.4861 190° South 126 145 5,600 720 Climbing Boston Center
08:01PM 44.4428 -73.5333 180° South  Level FlightAware Approximate
08:01PM 44.3647 -73.4942 189° South 126 145 6,400  Level Boston Center
08:02PM 44.4019 -73.5209 168° South  Level FlightAware Approximate
08:02PM 44.3314 -73.5022 190° South 126 145 7,000  Level Boston Center
08:03PM 44.2939 -73.5103 189° South 131 151 7,000  Level Boston Center
08:04PM 44.2481 -73.5181 187° South 140 161 7,000  Level Boston Center
08:05PM 44.2019 -73.5289 190° South 145 167 7,000  Level Boston Center
08:06PM 44.1539 -73.5367 187° South 145 167 7,000 480 Level Boston Center
08:07PM 44.1186 -73.5447 189° South 145 167 8,000 540 Climbing Boston Center
08:08PM 44.0872 -73.5500 187° South 138 159 8,100  Climbing Boston Center
08:09PM 44.0433 -73.5578 187° South 149 171 8,000 -60 Descending Boston Center
08:10PM 44.0017 -73.5686 191° South 154 177 8,000  Level Boston Center
08:11PM 43.9597 -73.5764 188° South 159 183 8,000  Level Boston Center
08:12PM 43.9056 -73.5869 188° South 159 183 8,000  Level Boston Center
08:13PM 43.8639 -73.5947 188° South 159 183 8,000  Level Boston Center
08:14PM 43.8219 -73.6025 188° South 159 183 8,000  Level Boston Center
08:15PM 43.7803 -73.6133 191° South 159 183 8,000  Level Boston Center
08:16PM 43.7386 -73.6211 188° South 159 183 8,000  Level Boston Center
08:17PM 43.6967 -73.6261 185° South 159 183 8,000  Level Boston Center
08:18PM 43.6531 -73.6339 187° South 150 173 8,000  Level Boston Center
08:19PM 43.6131 -73.6475 194° South 152 175 8,000  Level Boston Center
08:20PM 43.5756 -73.6522 185° South 150 173 8,000  Level Boston Center
08:21PM 43.5569 -73.6492 173° South 159 183 8,000  Level Boston Center
08:21PM 43.5358 -73.6603 201° Southwest 148 170 8,000  Level Boston Center
08:22PM 43.4964 -73.6650 185° South 147 169 8,000  Level Boston Center
08:23PM 43.4567 -73.6728 188° South 149 171 8,000  Level Boston Center
08:24PM 43.4336 -73.6753 185° South 159 183 8,000  Level Boston Center
08:25PM 43.3961 -73.6831 189° South 159 183 8,000 -300 Level Boston Center
08:26PM 43.3461 -73.6878 184° South 164 189 7,500 -660 Descending Boston Center
08:27PM 43.3044 -73.6869 179° South 169 194 6,700 -900 Descending Boston Center
08:28PM 43.2481 -73.6886 181° South 174 200 5,800 -900 Descending Boston Center
08:29PM 43.2064 -73.6878 179° South 179 206 5,000 -540 Descending Boston Center
08:29PM 43.1792 -73.6900 183° South 171 197 5,000 60 Level Boston Center
08:30PM 43.1583 -73.6867 173° South 169 194 5,100 60 Climbing Boston Center
08:30PM 43.1375 -73.6864 179° South 151 174 5,100 -480 Level Boston Center
08:31PM 43.0939 -73.6911 185° South 156 180 4,400 -600 Descending Boston Center
08:32PM 43.0481 -73.6931 182° South 165 190 4,000 -240 Descending Boston Center
08:33PM 43.0106 -73.6894 176° South 144 166 4,000  Level Boston Center
08:34PM 42.9667 -73.7028 193° South 145 167 4,100 -120 Climbing Boston Center
08:35PM 42.9247 -73.7189 196° South 155 178 3,800 -600 Descending Boston Center
08:36PM 42.8808 -73.7322 193° South 168 193 3,000 -660 Descending Boston Center
08:37PM 42.8347 -73.7508 196° South 169 194 2,500 -660 Descending Boston Center
08:38PM 42.7886 -73.7669 194° South 164 189 1,700 -360 Descending Boston Center
08:40PM 42.7072 -73.7681 181° South 152 175 1,500 -240 Descending Boston Center
08:41PM 42.6986 -73.8044 252° West 135 155 1,100 -540 Descending Boston Center
08:42PM 42.7361 -73.8083 356° North 104 120 400 -660 Descending Boston Center
08:44PM 42.7333 -73.8000 324° Northwest  Level FlightAware Approximate
08:51PM 42.7491 -73.8020 324° Northwest  Level Estimated